sensor_id;sensor_type;location;lat;lon;timestamp;P1;durP1;ratioP1;P2;durP2;ratioP2
27666;SDS011;15074;50.940;5.282;2024-01-30T00:01:55;14.85;;;9.85;;
27666;SDS011;15074;50.940;5.282;2024-01-30T00:04:21;10.32;;;9.32;;
27666;SDS011;15074;50.940;5.282;2024-01-30T00:06:47;10.27;;;9.10;;
27666;SDS011;15074;50.940;5.282;2024-01-30T00:09:13;8.98;;;7.72;;
27666;SDS011;15074;50.940;5.282;2024-01-30T00:11:39;11.23;;;8.43;;
27666;SDS011;15074;50.940;5.282;2024-01-30T00:14:04;8.98;;;8.07;;
27666;SDS011;15074;50.940;5.282;2024-01-30T00:16:30;9.27;;;8.20;;
27666;SDS011;15074;50.940;5.282;2024-01-30T00:18:56;10.55;;;7.50;;
27666;SDS011;15074;50.940;5.282;2024-01-30T00:21:23;8.80;;;7.93;;
27666;SDS011;15074;50.940;5.282;2024-01-30T00:23:48;8.98;;;8.07;;
27666;SDS011;15074;50.940;5.282;2024-01-30T00:26:14;9.68;;;8.65;;
27666;SDS011;15074;50.940;5.282;2024-01-30T00:28:40;12.13;;;8.70;;
27666;SDS011;15074;50.940;5.282;2024-01-30T00:31:07;9.20;;;8.30;;
27666;SDS011;15074;50.940;5.282;2024-01-30T00:33:33;8.18;;;7.38;;
27666;SDS011;15074;50.940;5.282;2024-01-30T00:35:58;7.97;;;7.13;;
27666;SDS011;15074;50.940;5.282;2024-01-30T00:38:24;11.65;;;8.70;;
27666;SDS011;15074;50.940;5.282;2024-01-30T00:40:50;9.65;;;8.25;;
27666;SDS011;15074;50.940;5.282;2024-01-30T00:43:16;9.63;;;8.52;;
27666;SDS011;15074;50.940;5.282;2024-01-30T00:45:43;9.27;;;8.38;;
27666;SDS011;15074;50.940;5.282;2024-01-30T00:48:09;10.25;;;8.23;;
27666;SDS011;15074;50.940;5.282;2024-01-30T00:50:34;9.15;;;8.25;;
27666;SDS011;15074;50.940;5.282;2024-01-30T00:53:00;11.77;;;8.85;;
27666;SDS011;15074;50.940;5.282;2024-01-30T00:55:26;11.68;;;7.72;;
27666;SDS011;15074;50.940;5.282;2024-01-30T00:57:51;9.52;;;8.63;;
27666;SDS011;15074;50.940;5.282;2024-01-30T01:00:17;9.95;;;8.68;;
27666;SDS011;15074;50.940;5.282;2024-01-30T01:02:43;11.43;;;8.68;;
27666;SDS011;15074;50.940;5.282;2024-01-30T01:05:09;9.75;;;8.55;;
27666;SDS011;15074;50.940;5.282;2024-01-30T01:07:35;9.27;;;7.78;;
27666;SDS011;15074;50.940;5.282;2024-01-30T01:10:01;10.50;;;8.70;;
27666;SDS011;15074;50.940;5.282;2024-01-30T01:12:27;9.75;;;8.70;;
27666;SDS011;15074;50.940;5.282;2024-01-30T01:14:53;8.82;;;7.93;;
27666;SDS011;15074;50.940;5.282;2024-01-30T01:17:19;8.70;;;7.78;;
27666;SDS011;15074;50.940;5.282;2024-01-30T01:19:44;10.63;;;8.25;;
27666;SDS011;15074;50.940;5.282;2024-01-30T01:22:10;8.65;;;7.75;;
27666;SDS011;15074;50.940;5.282;2024-01-30T01:24:36;11.00;;;7.10;;
27666;SDS011;15074;50.940;5.282;2024-01-30T01:27:02;8.98;;;7.72;;
27666;SDS011;15074;50.940;5.282;2024-01-30T01:29:28;8.90;;;7.90;;
27666;SDS011;15074;50.940;5.282;2024-01-30T01:31:57;8.90;;;7.68;;
27666;SDS011;15074;50.940;5.282;2024-01-30T01:34:24;10.32;;;9.27;;
27666;SDS011;15074;50.940;5.282;2024-01-30T01:36:50;13.40;;;8.57;;
27666;SDS011;15074;50.940;5.282;2024-01-30T01:39:16;16.38;;;8.82;;
27666;SDS011;15074;50.940;5.282;2024-01-30T01:41:42;8.68;;;7.70;;
27666;SDS011;15074;50.940;5.282;2024-01-30T01:44:08;8.77;;;7.80;;
27666;SDS011;15074;50.940;5.282;2024-01-30T01:46:34;7.50;;;6.80;;
27666;SDS011;15074;50.940;5.282;2024-01-30T01:49:04;8.65;;;7.72;;
27666;SDS011;15074;50.940;5.282;2024-01-30T01:51:31;11.82;;;7.47;;
27666;SDS011;15074;50.940;5.282;2024-01-30T01:53:59;9.18;;;7.63;;
27666;SDS011;15074;50.940;5.282;2024-01-30T01:56:28;8.82;;;6.78;;
27666;SDS011;15074;50.940;5.282;2024-01-30T01:58:55;8.55;;;7.65;;
27666;SDS011;15074;50.940;5.282;2024-01-30T02:01:32;8.27;;;7.38;;
27666;SDS011;15074;50.940;5.282;2024-01-30T02:03:59;7.90;;;7.10;;
27666;SDS011;15074;50.940;5.282;2024-01-30T02:06:25;11.70;;;7.88;;
27666;SDS011;15074;50.940;5.282;2024-01-30T02:08:52;12.57;;;7.45;;
27666;SDS011;15074;50.940;5.282;2024-01-30T02:11:18;9.38;;;7.03;;
27666;SDS011;15074;50.940;5.282;2024-01-30T02:13:45;8.13;;;6.78;;
27666;SDS011;15074;50.940;5.282;2024-01-30T02:16:10;8.10;;;7.18;;
27666;SDS011;15074;50.940;5.282;2024-01-30T02:18:36;8.38;;;7.10;;
27666;SDS011;15074;50.940;5.282;2024-01-30T02:21:07;9.85;;;7.78;;
27666;SDS011;15074;50.940;5.282;2024-01-30T02:23:33;8.05;;;7.03;;
27666;SDS011;15074;50.940;5.282;2024-01-30T02:25:59;8.68;;;7.78;;
27666;SDS011;15074;50.940;5.282;2024-01-30T02:28:25;6.93;;;6.22;;
27666;SDS011;15074;50.940;5.282;2024-01-30T02:30:51;9.18;;;6.68;;
27666;SDS011;15074;50.940;5.282;2024-01-30T02:33:16;11.27;;;7.25;;
27666;SDS011;15074;50.940;5.282;2024-01-30T02:35:42;7.45;;;6.72;;
27666;SDS011;15074;50.940;5.282;2024-01-30T02:38:08;9.27;;;6.53;;
27666;SDS011;15074;50.940;5.282;2024-01-30T02:40:33;7.78;;;7.07;;
27666;SDS011;15074;50.940;5.282;2024-01-30T02:42:59;8.48;;;7.22;;
27666;SDS011;15074;50.940;5.282;2024-01-30T02:45:26;8.60;;;7.18;;
27666;SDS011;15074;50.940;5.282;2024-01-30T02:47:52;9.10;;;6.95;;
27666;SDS011;15074;50.940;5.282;2024-01-30T02:50:17;7.78;;;7.07;;
27666;SDS011;15074;50.940;5.282;2024-01-30T02:52:43;9.30;;;6.63;;
27666;SDS011;15074;50.940;5.282;2024-01-30T02:55:09;7.43;;;6.70;;
27666;SDS011;15074;50.940;5.282;2024-01-30T02:57:35;7.47;;;6.60;;
27666;SDS011;15074;50.940;5.282;2024-01-30T03:00:01;9.23;;;7.63;;
27666;SDS011;15074;50.940;5.282;2024-01-30T03:02:29;10.80;;;7.63;;
27666;SDS011;15074;50.940;5.282;2024-01-30T03:04:55;6.93;;;6.07;;
27666;SDS011;15074;50.940;5.282;2024-01-30T03:07:20;7.38;;;6.03;;
27666;SDS011;15074;50.940;5.282;2024-01-30T03:09:46;7.15;;;6.32;;
27666;SDS011;15074;50.940;5.282;2024-01-30T03:12:11;7.63;;;5.88;;
27666;SDS011;15074;50.940;5.282;2024-01-30T03:14:37;7.07;;;6.15;;
27666;SDS011;15074;50.940;5.282;2024-01-30T03:17:03;7.95;;;6.13;;
27666;SDS011;15074;50.940;5.282;2024-01-30T03:19:28;7.70;;;6.72;;
27666;SDS011;15074;50.940;5.282;2024-01-30T03:21:54;6.97;;;6.28;;
27666;SDS011;15074;50.940;5.282;2024-01-30T03:24:20;6.68;;;5.50;;
27666;SDS011;15074;50.940;5.282;2024-01-30T03:26:45;6.80;;;6.18;;
27666;SDS011;15074;50.940;5.282;2024-01-30T03:29:11;8.35;;;6.97;;
27666;SDS011;15074;50.940;5.282;2024-01-30T03:31:37;7.80;;;6.57;;
27666;SDS011;15074;50.940;5.282;2024-01-30T03:34:03;6.82;;;5.85;;
27666;SDS011;15074;50.940;5.282;2024-01-30T03:36:29;8.07;;;6.45;;
27666;SDS011;15074;50.940;5.282;2024-01-30T03:38:57;6.22;;;5.38;;
27666;SDS011;15074;50.940;5.282;2024-01-30T03:41:23;7.07;;;6.00;;
27666;SDS011;15074;50.940;5.282;2024-01-30T03:43:49;7.75;;;6.15;;
27666;SDS011;15074;50.940;5.282;2024-01-30T03:46:15;7.55;;;6.10;;
27666;SDS011;15074;50.940;5.282;2024-01-30T03:48:41;7.00;;;5.40;;
27666;SDS011;15074;50.940;5.282;2024-01-30T03:51:07;8.80;;;6.03;;
27666;SDS011;15074;50.940;5.282;2024-01-30T03:53:33;8.30;;;5.35;;
27666;SDS011;15074;50.940;5.282;2024-01-30T03:55:58;6.57;;;5.95;;
27666;SDS011;15074;50.940;5.282;2024-01-30T03:58:24;8.35;;;6.35;;
27666;SDS011;15074;50.940;5.282;2024-01-30T04:00:49;6.70;;;5.78;;
27666;SDS011;15074;50.940;5.282;2024-01-30T04:03:15;8.60;;;5.60;;
27666;SDS011;15074;50.940;5.282;2024-01-30T04:05:41;5.90;;;5.40;;
27666;SDS011;15074;50.940;5.282;2024-01-30T04:08:07;5.25;;;4.75;;
27666;SDS011;15074;50.940;5.282;2024-01-30T04:10:33;5.90;;;4.97;;
27666;SDS011;15074;50.940;5.282;2024-01-30T04:12:59;6.15;;;5.50;;
27666;SDS011;15074;50.940;5.282;2024-01-30T04:15:25;5.60;;;5.10;;
27666;SDS011;15074;50.940;5.282;2024-01-30T04:17:51;11.00;;;5.78;;
27666;SDS011;15074;50.940;5.282;2024-01-30T04:20:17;6.50;;;5.60;;
27666;SDS011;15074;50.940;5.282;2024-01-30T04:22:43;6.35;;;5.75;;
27666;SDS011;15074;50.940;5.282;2024-01-30T04:25:09;7.13;;;5.55;;
27666;SDS011;15074;50.940;5.282;2024-01-30T04:27:35;6.07;;;5.00;;
27666;SDS011;15074;50.940;5.282;2024-01-30T04:30:01;5.45;;;4.95;;
27666;SDS011;15074;50.940;5.282;2024-01-30T04:32:27;11.85;;;5.38;;
27666;SDS011;15074;50.940;5.282;2024-01-30T04:34:52;6.03;;;5.43;;
27666;SDS011;15074;50.940;5.282;2024-01-30T04:37:18;6.20;;;5.60;;
27666;SDS011;15074;50.940;5.282;2024-01-30T04:39:43;6.68;;;6.00;;
27666;SDS011;15074;50.940;5.282;2024-01-30T04:42:09;7.00;;;6.30;;
27666;SDS011;15074;50.940;5.282;2024-01-30T04:44:40;6.28;;;5.60;;
27666;SDS011;15074;50.940;5.282;2024-01-30T04:47:05;5.25;;;4.75;;
27666;SDS011;15074;50.940;5.282;2024-01-30T04:51:59;6.90;;;5.35;;
27666;SDS011;15074;50.940;5.282;2024-01-30T04:54:25;6.68;;;5.40;;
27666;SDS011;15074;50.940;5.282;2024-01-30T04:56:50;6.88;;;5.32;;
27666;SDS011;15074;50.940;5.282;2024-01-30T04:59:16;6.40;;;5.63;;
27666;SDS011;15074;50.940;5.282;2024-01-30T05:01:42;7.10;;;5.03;;
27666;SDS011;15074;50.940;5.282;2024-01-30T05:04:07;7.53;;;5.88;;
27666;SDS011;15074;50.940;5.282;2024-01-30T05:06:34;7.07;;;5.40;;
27666;SDS011;15074;50.940;5.282;2024-01-30T05:08:59;6.38;;;5.53;;
27666;SDS011;15074;50.940;5.282;2024-01-30T05:11:25;6.10;;;5.50;;
27666;SDS011;15074;50.940;5.282;2024-01-30T05:13:50;10.68;;;5.50;;
27666;SDS011;15074;50.940;5.282;2024-01-30T05:16:16;6.22;;;5.63;;
27666;SDS011;15074;50.940;5.282;2024-01-30T05:18:42;6.35;;;5.75;;
27666;SDS011;15074;50.940;5.282;2024-01-30T05:21:08;5.88;;;5.28;;
27666;SDS011;15074;50.940;5.282;2024-01-30T05:23:35;9.90;;;6.05;;
27666;SDS011;15074;50.940;5.282;2024-01-30T05:26:01;6.10;;;5.50;;
27666;SDS011;15074;50.940;5.282;2024-01-30T05:28:28;7.95;;;6.50;;
27666;SDS011;15074;50.940;5.282;2024-01-30T05:30:55;6.57;;;5.85;;
27666;SDS011;15074;50.940;5.282;2024-01-30T05:33:21;8.82;;;7.93;;
27666;SDS011;15074;50.940;5.282;2024-01-30T05:35:47;10.75;;;9.85;;
27666;SDS011;15074;50.940;5.282;2024-01-30T05:38:13;10.13;;;9.23;;
27666;SDS011;15074;50.940;5.282;2024-01-30T05:40:40;17.80;;;8.48;;
27666;SDS011;15074;50.940;5.282;2024-01-30T05:43:05;9.63;;;8.73;;
27666;SDS011;15074;50.940;5.282;2024-01-30T05:45:32;7.78;;;6.93;;
27666;SDS011;15074;50.940;5.282;2024-01-30T05:48:00;8.35;;;7.18;;
27666;SDS011;15074;50.940;5.282;2024-01-30T05:50:26;9.23;;;7.35;;
27666;SDS011;15074;50.940;5.282;2024-01-30T05:52:52;6.75;;;5.78;;
27666;SDS011;15074;50.940;5.282;2024-01-30T05:55:17;6.88;;;6.18;;
27666;SDS011;15074;50.940;5.282;2024-01-30T05:57:43;9.13;;;6.38;;
27666;SDS011;15074;50.940;5.282;2024-01-30T06:00:09;8.27;;;6.43;;
27666;SDS011;15074;50.940;5.282;2024-01-30T06:02:35;6.97;;;6.28;;
27666;SDS011;15074;50.940;5.282;2024-01-30T06:05:01;7.18;;;6.35;;
27666;SDS011;15074;50.940;5.282;2024-01-30T06:07:27;8.00;;;6.90;;
27666;SDS011;15074;50.940;5.282;2024-01-30T06:09:52;6.13;;;5.50;;
27666;SDS011;15074;50.940;5.282;2024-01-30T06:12:18;7.05;;;6.35;;
27666;SDS011;15074;50.940;5.282;2024-01-30T06:14:44;7.10;;;5.72;;
27666;SDS011;15074;50.940;5.282;2024-01-30T06:17:09;6.30;;;5.70;;
27666;SDS011;15074;50.940;5.282;2024-01-30T06:19:37;7.87;;;6.10;;
27666;SDS011;15074;50.940;5.282;2024-01-30T06:22:04;6.50;;;5.82;;
27666;SDS011;15074;50.940;5.282;2024-01-30T06:24:30;6.20;;;5.60;;
27666;SDS011;15074;50.940;5.282;2024-01-30T06:26:55;6.30;;;5.70;;
27666;SDS011;15074;50.940;5.282;2024-01-30T06:29:22;7.40;;;6.43;;
27666;SDS011;15074;50.940;5.282;2024-01-30T06:31:49;8.13;;;6.20;;
27666;SDS011;15074;50.940;5.282;2024-01-30T06:34:15;7.20;;;6.05;;
27666;SDS011;15074;50.940;5.282;2024-01-30T06:36:43;6.45;;;5.78;;
27666;SDS011;15074;50.940;5.282;2024-01-30T06:39:09;6.25;;;5.65;;
27666;SDS011;15074;50.940;5.282;2024-01-30T06:41:35;7.35;;;6.65;;
27666;SDS011;15074;50.940;5.282;2024-01-30T06:44:03;6.65;;;5.95;;
27666;SDS011;15074;50.940;5.282;2024-01-30T06:46:31;9.23;;;5.85;;
27666;SDS011;15074;50.940;5.282;2024-01-30T06:48:57;7.82;;;6.90;;
27666;SDS011;15074;50.940;5.282;2024-01-30T06:51:23;6.72;;;6.03;;
27666;SDS011;15074;50.940;5.282;2024-01-30T06:53:49;9.23;;;6.15;;
27666;SDS011;15074;50.940;5.282;2024-01-30T06:56:15;7.40;;;6.45;;
27666;SDS011;15074;50.940;5.282;2024-01-30T06:58:46;6.40;;;5.80;;
27666;SDS011;15074;50.940;5.282;2024-01-30T07:01:14;6.00;;;5.40;;
27666;SDS011;15074;50.940;5.282;2024-01-30T07:03:40;8.18;;;6.25;;
27666;SDS011;15074;50.940;5.282;2024-01-30T07:06:07;7.72;;;6.13;;
27666;SDS011;15074;50.940;5.282;2024-01-30T07:08:33;7.28;;;6.45;;
27666;SDS011;15074;50.940;5.282;2024-01-30T07:10:58;5.97;;;5.38;;
27666;SDS011;15074;50.940;5.282;2024-01-30T07:13:24;9.05;;;6.43;;
27666;SDS011;15074;50.940;5.282;2024-01-30T07:15:50;6.93;;;5.80;;
27666;SDS011;15074;50.940;5.282;2024-01-30T07:18:15;9.57;;;6.40;;
27666;SDS011;15074;50.940;5.282;2024-01-30T07:20:41;7.18;;;5.93;;
27666;SDS011;15074;50.940;5.282;2024-01-30T07:23:11;11.65;;;6.15;;
27666;SDS011;15074;50.940;5.282;2024-01-30T07:25:39;8.77;;;6.40;;
27666;SDS011;15074;50.940;5.282;2024-01-30T07:28:06;7.07;;;6.05;;
27666;SDS011;15074;50.940;5.282;2024-01-30T07:30:34;7.05;;;6.40;;
27666;SDS011;15074;50.940;5.282;2024-01-30T07:33:00;7.30;;;6.60;;
27666;SDS011;15074;50.940;5.282;2024-01-30T07:35:25;8.20;;;6.63;;
27666;SDS011;15074;50.940;5.282;2024-01-30T07:37:51;7.68;;;6.40;;
27666;SDS011;15074;50.940;5.282;2024-01-30T07:40:17;6.82;;;6.13;;
27666;SDS011;15074;50.940;5.282;2024-01-30T07:42:42;6.32;;;5.45;;
27666;SDS011;15074;50.940;5.282;2024-01-30T07:45:08;6.68;;;5.95;;
27666;SDS011;15074;50.940;5.282;2024-01-30T07:47:34;6.93;;;6.22;;
27666;SDS011;15074;50.940;5.282;2024-01-30T07:50:00;7.43;;;6.15;;
27666;SDS011;15074;50.940;5.282;2024-01-30T07:52:26;6.63;;;5.88;;
27666;SDS011;15074;50.940;5.282;2024-01-30T07:54:51;6.75;;;5.68;;
27666;SDS011;15074;50.940;5.282;2024-01-30T07:57:17;9.90;;;6.30;;
27666;SDS011;15074;50.940;5.282;2024-01-30T07:59:43;7.22;;;6.07;;
27666;SDS011;15074;50.940;5.282;2024-01-30T08:02:10;7.63;;;6.50;;
27666;SDS011;15074;50.940;5.282;2024-01-30T08:04:36;9.27;;;6.53;;
27666;SDS011;15074;50.940;5.282;2024-01-30T08:07:02;8.38;;;6.25;;
27666;SDS011;15074;50.940;5.282;2024-01-30T08:09:28;6.90;;;5.93;;
27666;SDS011;15074;50.940;5.282;2024-01-30T08:11:54;6.43;;;5.82;;
27666;SDS011;15074;50.940;5.282;2024-01-30T08:14:19;10.63;;;6.47;;
27666;SDS011;15074;50.940;5.282;2024-01-30T08:16:45;6.05;;;5.45;;
27666;SDS011;15074;50.940;5.282;2024-01-30T08:19:11;8.23;;;6.40;;
27666;SDS011;15074;50.940;5.282;2024-01-30T08:21:37;6.95;;;5.80;;
27666;SDS011;15074;50.940;5.282;2024-01-30T08:24:03;8.80;;;6.20;;
27666;SDS011;15074;50.940;5.282;2024-01-30T08:26:29;6.35;;;5.53;;
27666;SDS011;15074;50.940;5.282;2024-01-30T08:28:56;7.38;;;5.88;;
27666;SDS011;15074;50.940;5.282;2024-01-30T08:31:22;7.55;;;5.38;;
27666;SDS011;15074;50.940;5.282;2024-01-30T08:33:48;6.95;;;6.25;;
27666;SDS011;15074;50.940;5.282;2024-01-30T08:36:14;7.30;;;6.07;;
27666;SDS011;15074;50.940;5.282;2024-01-30T08:38:40;7.40;;;6.70;;
27666;SDS011;15074;50.940;5.282;2024-01-30T08:41:07;6.00;;;5.40;;
27666;SDS011;15074;50.940;5.282;2024-01-30T08:43:32;6.97;;;6.22;;
27666;SDS011;15074;50.940;5.282;2024-01-30T08:45:59;6.28;;;5.65;;
27666;SDS011;15074;50.940;5.282;2024-01-30T08:48:25;6.57;;;5.70;;
27666;SDS011;15074;50.940;5.282;2024-01-30T08:50:51;7.63;;;6.78;;
27666;SDS011;15074;50.940;5.282;2024-01-30T08:53:16;8.10;;;6.82;;
27666;SDS011;15074;50.940;5.282;2024-01-30T08:55:42;7.63;;;6.82;;
27666;SDS011;15074;50.940;5.282;2024-01-30T08:58:08;8.77;;;6.75;;
27666;SDS011;15074;50.940;5.282;2024-01-30T09:00:34;13.25;;;6.05;;
27666;SDS011;15074;50.940;5.282;2024-01-30T09:02:59;7.40;;;6.50;;
27666;SDS011;15074;50.940;5.282;2024-01-30T09:05:25;8.35;;;6.15;;
27666;SDS011;15074;50.940;5.282;2024-01-30T09:07:51;9.95;;;6.05;;
27666;SDS011;15074;50.940;5.282;2024-01-30T09:10:16;7.60;;;6.22;;
27666;SDS011;15074;50.940;5.282;2024-01-30T09:12:42;6.75;;;5.63;;
27666;SDS011;15074;50.940;5.282;2024-01-30T09:15:08;8.10;;;6.20;;
27666;SDS011;15074;50.940;5.282;2024-01-30T09:17:34;8.07;;;6.68;;
27666;SDS011;15074;50.940;5.282;2024-01-30T09:19:59;8.00;;;6.18;;
27666;SDS011;15074;50.940;5.282;2024-01-30T09:22:25;7.63;;;6.43;;
27666;SDS011;15074;50.940;5.282;2024-01-30T09:24:51;6.55;;;5.90;;
27666;SDS011;15074;50.940;5.282;2024-01-30T09:27:16;7.90;;;6.28;;
27666;SDS011;15074;50.940;5.282;2024-01-30T09:29:42;8.00;;;6.22;;
27666;SDS011;15074;50.940;5.282;2024-01-30T09:32:08;8.73;;;6.78;;
27666;SDS011;15074;50.940;5.282;2024-01-30T09:34:34;6.72;;;5.80;;
27666;SDS011;15074;50.940;5.282;2024-01-30T09:37:00;7.07;;;6.35;;
27666;SDS011;15074;50.940;5.282;2024-01-30T09:39:26;6.32;;;5.70;;
27666;SDS011;15074;50.940;5.282;2024-01-30T09:41:55;8.07;;;6.82;;
27666;SDS011;15074;50.940;5.282;2024-01-30T09:44:44;6.38;;;5.78;;
27666;SDS011;15074;50.940;5.282;2024-01-30T09:47:12;6.90;;;6.20;;
27666;SDS011;15074;50.940;5.282;2024-01-30T09:49:38;6.15;;;5.55;;
27666;SDS011;15074;50.940;5.282;2024-01-30T09:52:06;6.50;;;5.90;;
27666;SDS011;15074;50.940;5.282;2024-01-30T09:54:32;9.40;;;6.00;;
27666;SDS011;15074;50.940;5.282;2024-01-30T09:57:00;6.53;;;5.50;;
27666;SDS011;15074;50.940;5.282;2024-01-30T09:59:25;9.88;;;6.70;;
27666;SDS011;15074;50.940;5.282;2024-01-30T10:01:51;8.50;;;5.20;;
27666;SDS011;15074;50.940;5.282;2024-01-30T10:04:17;13.95;;;5.72;;
27666;SDS011;15074;50.940;5.282;2024-01-30T10:06:43;10.63;;;5.72;;
27666;SDS011;15074;50.940;5.282;2024-01-30T10:09:08;9.68;;;5.97;;
27666;SDS011;15074;50.940;5.282;2024-01-30T10:11:35;8.68;;;5.53;;
27666;SDS011;15074;50.940;5.282;2024-01-30T10:14:01;9.23;;;5.93;;
27666;SDS011;15074;50.940;5.282;2024-01-30T10:16:27;7.30;;;6.57;;
27666;SDS011;15074;50.940;5.282;2024-01-30T10:18:53;9.45;;;7.13;;
27666;SDS011;15074;50.940;5.282;2024-01-30T10:21:19;7.15;;;5.85;;
27666;SDS011;15074;50.940;5.282;2024-01-30T10:23:44;9.80;;;6.65;;
27666;SDS011;15074;50.940;5.282;2024-01-30T10:26:10;8.93;;;6.78;;
27666;SDS011;15074;50.940;5.282;2024-01-30T10:28:35;9.45;;;6.93;;
27666;SDS011;15074;50.940;5.282;2024-01-30T10:31:01;10.27;;;6.95;;
27666;SDS011;15074;50.940;5.282;2024-01-30T10:33:30;10.05;;;6.50;;
27666;SDS011;15074;50.940;5.282;2024-01-30T10:35:59;13.70;;;7.00;;
27666;SDS011;15074;50.940;5.282;2024-01-30T10:38:29;7.47;;;6.57;;
27666;SDS011;15074;50.940;5.282;2024-01-30T10:40:59;10.25;;;6.63;;
27666;SDS011;15074;50.940;5.282;2024-01-30T10:43:30;12.18;;;7.13;;
27666;SDS011;15074;50.940;5.282;2024-01-30T10:46:08;14.45;;;7.22;;
27666;SDS011;15074;50.940;5.282;2024-01-30T10:48:46;7.57;;;6.78;;
27666;SDS011;15074;50.940;5.282;2024-01-30T10:51:22;10.55;;;7.45;;
27666;SDS011;15074;50.940;5.282;2024-01-30T10:53:48;7.85;;;7.00;;
27666;SDS011;15074;50.940;5.282;2024-01-30T10:56:16;15.43;;;7.68;;
27666;SDS011;15074;50.940;5.282;2024-01-30T10:58:41;9.35;;;7.03;;
27666;SDS011;15074;50.940;5.282;2024-01-30T11:01:07;10.93;;;7.90;;
27666;SDS011;15074;50.940;5.282;2024-01-30T11:03:34;11.23;;;8.13;;
27666;SDS011;15074;50.940;5.282;2024-01-30T11:06:01;10.43;;;7.82;;
27666;SDS011;15074;50.940;5.282;2024-01-30T11:08:28;11.73;;;8.32;;
27666;SDS011;15074;50.940;5.282;2024-01-30T11:10:57;9.43;;;8.10;;
27666;SDS011;15074;50.940;5.282;2024-01-30T11:13:27;11.32;;;8.27;;
27666;SDS011;15074;50.940;5.282;2024-01-30T11:16:05;12.65;;;8.32;;
27666;SDS011;15074;50.940;5.282;2024-01-30T11:18:32;8.50;;;7.68;;
27666;SDS011;15074;50.940;5.282;2024-01-30T11:21:00;10.60;;;8.23;;
27666;SDS011;15074;50.940;5.282;2024-01-30T11:23:30;10.73;;;7.55;;
27666;SDS011;15074;50.940;5.282;2024-01-30T11:25:56;10.02;;;7.80;;
27666;SDS011;15074;50.940;5.282;2024-01-30T11:28:22;11.98;;;8.18;;
27666;SDS011;15074;50.940;5.282;2024-01-30T11:30:48;11.25;;;7.90;;
27666;SDS011;15074;50.940;5.282;2024-01-30T11:33:27;14.52;;;7.90;;
27666;SDS011;15074;50.940;5.282;2024-01-30T11:35:59;14.18;;;8.95;;
27666;SDS011;15074;50.940;5.282;2024-01-30T11:38:26;13.50;;;9.05;;
27666;SDS011;15074;50.940;5.282;2024-01-30T11:40:53;14.20;;;8.93;;
27666;SDS011;15074;50.940;5.282;2024-01-30T11:43:22;11.80;;;9.07;;
27666;SDS011;15074;50.940;5.282;2024-01-30T11:45:48;11.07;;;8.57;;
27666;SDS011;15074;50.940;5.282;2024-01-30T11:48:14;8.98;;;8.05;;
27666;SDS011;15074;50.940;5.282;2024-01-30T11:50:40;11.00;;;8.80;;
27666;SDS011;15074;50.940;5.282;2024-01-30T11:53:06;10.90;;;9.25;;
27666;SDS011;15074;50.940;5.282;2024-01-30T11:55:32;9.13;;;8.20;;
27666;SDS011;15074;50.940;5.282;2024-01-30T11:57:59;14.70;;;9.13;;
27666;SDS011;15074;50.940;5.282;2024-01-30T12:00:25;13.57;;;9.43;;
27666;SDS011;15074;50.940;5.282;2024-01-30T12:02:51;14.40;;;9.07;;
27666;SDS011;15074;50.940;5.282;2024-01-30T12:05:23;11.38;;;8.98;;
27666;SDS011;15074;50.940;5.282;2024-01-30T12:07:50;16.98;;;8.95;;
27666;SDS011;15074;50.940;5.282;2024-01-30T12:10:16;13.50;;;8.80;;
27666;SDS011;15074;50.940;5.282;2024-01-30T12:12:44;21.33;;;9.70;;
27666;SDS011;15074;50.940;5.282;2024-01-30T12:15:12;10.90;;;9.50;;
27666;SDS011;15074;50.940;5.282;2024-01-30T12:17:38;12.27;;;9.15;;
27666;SDS011;15074;50.940;5.282;2024-01-30T12:20:05;12.88;;;9.52;;
27666;SDS011;15074;50.940;5.282;2024-01-30T12:22:38;12.43;;;9.50;;
27666;SDS011;15074;50.940;5.282;2024-01-30T12:25:09;12.43;;;9.70;;
27666;SDS011;15074;50.940;5.282;2024-01-30T12:27:36;14.27;;;10.10;;
27666;SDS011;15074;50.940;5.282;2024-01-30T12:30:06;10.63;;;9.63;;
27666;SDS011;15074;50.940;5.282;2024-01-30T12:32:34;11.45;;;8.65;;
27666;SDS011;15074;50.940;5.282;2024-01-30T12:35:01;18.38;;;6.97;;
27666;SDS011;15074;50.940;5.282;2024-01-30T12:37:27;14.93;;;7.22;;
27666;SDS011;15074;50.940;5.282;2024-01-30T12:39:54;5.72;;;4.97;;
27666;SDS011;15074;50.940;5.282;2024-01-30T12:42:20;6.55;;;4.90;;
27666;SDS011;15074;50.940;5.282;2024-01-30T12:44:49;6.75;;;4.35;;
27666;SDS011;15074;50.940;5.282;2024-01-30T12:47:15;4.65;;;3.90;;
27666;SDS011;15074;50.940;5.282;2024-01-30T12:49:44;6.20;;;3.90;;
27666;SDS011;15074;50.940;5.282;2024-01-30T12:52:13;7.95;;;4.72;;
27666;SDS011;15074;50.940;5.282;2024-01-30T12:54:41;7.18;;;5.05;;
27666;SDS011;15074;50.940;5.282;2024-01-30T12:57:07;9.02;;;3.83;;
27666;SDS011;15074;50.940;5.282;2024-01-30T12:59:32;6.13;;;3.72;;
27666;SDS011;15074;50.940;5.282;2024-01-30T13:01:59;7.63;;;2.42;;
27666;SDS011;15074;50.940;5.282;2024-01-30T13:04:27;3.25;;;1.88;;
27666;SDS011;15074;50.940;5.282;2024-01-30T13:06:53;3.08;;;1.85;;
27666;SDS011;15074;50.940;5.282;2024-01-30T13:09:18;4.35;;;1.50;;
27666;SDS011;15074;50.940;5.282;2024-01-30T13:11:44;4.03;;;2.38;;
27666;SDS011;15074;50.940;5.282;2024-01-30T13:14:10;3.50;;;1.70;;
27666;SDS011;15074;50.940;5.282;2024-01-30T13:16:36;4.40;;;1.80;;
27666;SDS011;15074;50.940;5.282;2024-01-30T13:19:02;3.63;;;2.00;;
27666;SDS011;15074;50.940;5.282;2024-01-30T13:21:27;1.88;;;1.60;;
27666;SDS011;15074;50.940;5.282;2024-01-30T13:23:53;2.22;;;1.42;;
27666;SDS011;15074;50.940;5.282;2024-01-30T13:26:22;3.03;;;1.27;;
27666;SDS011;15074;50.940;5.282;2024-01-30T13:28:48;3.45;;;1.20;;
27666;SDS011;15074;50.940;5.282;2024-01-30T13:31:14;2.22;;;0.90;;
27666;SDS011;15074;50.940;5.282;2024-01-30T13:33:40;3.08;;;0.70;;
27666;SDS011;15074;50.940;5.282;2024-01-30T13:36:09;1.33;;;0.80;;
27666;SDS011;15074;50.940;5.282;2024-01-30T13:38:36;1.40;;;0.70;;
27666;SDS011;15074;50.940;5.282;2024-01-30T13:41:02;1.50;;;0.60;;
27666;SDS011;15074;50.940;5.282;2024-01-30T13:43:28;0.77;;;0.60;;
27666;SDS011;15074;50.940;5.282;2024-01-30T13:45:54;1.95;;;0.70;;
27666;SDS011;15074;50.940;5.282;2024-01-30T13:48:20;1.90;;;0.60;;
27666;SDS011;15074;50.940;5.282;2024-01-30T13:50:46;1.02;;;0.60;;
27666;SDS011;15074;50.940;5.282;2024-01-30T13:53:12;1.75;;;0.57;;
27666;SDS011;15074;50.940;5.282;2024-01-30T13:55:38;1.02;;;0.50;;
27666;SDS011;15074;50.940;5.282;2024-01-30T13:58:04;1.45;;;0.60;;
27666;SDS011;15074;50.940;5.282;2024-01-30T14:00:30;0.70;;;0.40;;
27666;SDS011;15074;50.940;5.282;2024-01-30T14:02:56;1.48;;;0.50;;
27666;SDS011;15074;50.940;5.282;2024-01-30T14:05:25;0.80;;;0.50;;
27666;SDS011;15074;50.940;5.282;2024-01-30T14:07:53;1.02;;;0.50;;
27666;SDS011;15074;50.940;5.282;2024-01-30T14:10:18;0.55;;;0.40;;
27666;SDS011;15074;50.940;5.282;2024-01-30T14:12:44;1.45;;;0.60;;
27666;SDS011;15074;50.940;5.282;2024-01-30T14:15:11;1.55;;;0.57;;
27666;SDS011;15074;50.940;5.282;2024-01-30T14:17:37;2.17;;;0.50;;
27666;SDS011;15074;50.940;5.282;2024-01-30T14:20:03;2.10;;;0.52;;
27666;SDS011;15074;50.940;5.282;2024-01-30T14:22:29;1.35;;;0.60;;
27666;SDS011;15074;50.940;5.282;2024-01-30T14:24:55;2.33;;;0.50;;
27666;SDS011;15074;50.940;5.282;2024-01-30T14:27:21;3.50;;;0.50;;
27666;SDS011;15074;50.940;5.282;2024-01-30T14:29:47;0.75;;;0.40;;
27666;SDS011;15074;50.940;5.282;2024-01-30T14:32:13;1.38;;;0.70;;
27666;SDS011;15074;50.940;5.282;2024-01-30T14:34:39;1.15;;;0.40;;
27666;SDS011;15074;50.940;5.282;2024-01-30T14:37:04;1.02;;;0.38;;
27666;SDS011;15074;50.940;5.282;2024-01-30T14:39:30;3.13;;;0.57;;
27666;SDS011;15074;50.940;5.282;2024-01-30T14:41:56;1.85;;;0.68;;
27666;SDS011;15074;50.940;5.282;2024-01-30T14:44:22;1.02;;;0.55;;